Accueil
METAR-TAF:

METAR-TAF

Aéroports :

Palma de Majorque, Espagne

Aéroport de Palma de Majorque

latitude: 39-33N, longitude: 002-44E, altitude: 4 m

Observation

Le bulletin a été fait il y a 32 minutes, à 02:30 UTC
Vent 1 kt de nord-est
Température 19°C
Humidité 94%
Pression 1017 hPa
Visibilité 10 km ou plus
pas de nuages en-dessous de 1500 mètres et pas de cumulonimbus.

METAR: LEPA 240230Z 04001KT CAVOK 19/18 Q1017 NOSIG

Heure: 05:02 (03:02 UTC)

Prévision

Le bulletin a été fait il y a 4 heures et 2 minutes, à 23:00 UTC
Prévision valable du 24 à 00 UTC au 24 à 24 UTC
Vent 3 kt de direction variable
Visibilité 10 km ou plus
Quelques nuages à une hauteur de 2500 ft
Evoluant progressivement
du 24 à 09 UTC au 24 à 11 UTC
Vent 10 kt de sud-ouest
Evoluant progressivement
du 24 à 18 UTC au 24 à 20 UTC
Vent 6 kt de est

TAF: LEPA 232300Z 2400/2424 VRB03KT 9999 FEW025 TX33/2412Z TN19/2405Z BECMG 2409/2411 22010KT BECMG 2418/2420 09006KT

Observations et prévisions météorologiques de plus de 4000 aéroports (messages METAR et TAF).

Les stations disponibles sont représentées par des disques jaunes et rouges sur la carte.

Passer la souris dessus pour voir le nom de la station.

Cliquer dessus pour voir les observations et prévisions météorologiques.

Pour changer de carte: cliquez sur les boutons verts avec une croix noire pour zoomer, sur le bouton vert avec un tiret pour effectuer un zoom arrière, ou sur les flèches vertes pour les cartes adjacentes.


METAR-TAF: